createdAt,value
2019-03-20T00:02:12.493Z,65.97
2019-03-20T00:04:49.615Z,66.07
2019-03-20T00:07:16.690Z,66.48
2019-03-20T00:09:47.435Z,66.23
2019-03-20T00:12:17.840Z,66.33
2019-03-20T00:14:47.346Z,65.87
2019-03-20T00:17:16.748Z,66.64
2019-03-20T00:19:47.022Z,67.05
2019-03-20T00:22:16.375Z,66.53
2019-03-20T00:24:46.768Z,65.67
2019-03-20T00:27:17.266Z,66.12
2019-03-20T00:29:48.784Z,66.53
2019-03-20T00:32:19.237Z,66.85
2019-03-20T00:34:48.637Z,66.58
2019-03-20T00:37:21.204Z,66.30
2019-03-20T00:39:51.566Z,66.60
2019-03-20T00:42:22.005Z,66.78
2019-03-20T00:44:52.426Z,66.28
2019-03-20T00:47:21.822Z,67.38
2019-03-20T00:49:52.344Z,67.07
2019-03-20T00:52:24.364Z,67.11
2019-03-20T00:54:54.773Z,66.57
2019-03-20T00:57:24.141Z,66.72
2019-03-20T00:59:54.533Z,66.63
2019-03-20T01:02:23.943Z,67.27
2019-03-20T01:04:53.377Z,66.40
2019-03-20T01:07:23.753Z,66.35
2019-03-20T01:09:52.577Z,67.62
2019-03-20T01:12:22.991Z,67.73
2019-03-20T01:14:52.369Z,67.21
2019-03-20T01:17:23.309Z,67.15
2019-03-20T01:19:53.715Z,67.36
2019-03-20T01:22:24.106Z,67.36
2019-03-20T01:24:53.514Z,66.96
2019-03-20T01:27:25.756Z,66.42
2019-03-20T01:29:56.161Z,66.23
2019-03-20T01:32:26.565Z,65.95
2019-03-20T01:34:56.953Z,65.80
2019-03-20T01:37:25.703Z,65.83
2019-03-20T01:39:55.064Z,66.37
2019-03-20T01:42:25.420Z,66.04
2019-03-20T01:44:57.697Z,67.16
2019-03-20T01:47:28.201Z,67.63
2019-03-20T01:49:57.681Z,67.76
2019-03-20T01:52:27.092Z,67.94
2019-03-20T01:54:57.440Z,68.27
2019-03-20T01:57:26.797Z,68.21
2019-03-20T01:59:57.184Z,67.68
2019-03-20T02:02:26.566Z,68.53
2019-03-20T02:04:57.032Z,68.61
2019-03-20T02:07:26.835Z,68.59
2019-03-20T02:09:56.181Z,68.73
2019-03-20T02:12:25.583Z,69.17
2019-03-20T02:14:56.298Z,70.21
2019-03-20T02:17:26.635Z,69.43
2019-03-20T02:19:57.069Z,69.11
2019-03-20T02:22:27.470Z,69.24
2019-03-20T02:24:57.884Z,69.64
2019-03-20T02:27:27.246Z,69.35
2019-03-20T02:29:57.848Z,68.97
2019-03-20T02:32:28.240Z,69.15
2019-03-20T02:34:59.093Z,69.67
2019-03-20T02:37:29.484Z,69.78
2019-03-20T02:39:59.997Z,69.33
2019-03-20T02:42:31.547Z,69.90
2019-03-20T02:45:01.956Z,69.88
2019-03-20T02:47:31.361Z,69.99
2019-03-20T02:50:02.396Z,69.29
2019-03-20T02:52:31.864Z,69.28
2019-03-20T02:55:00.754Z,68.89
2019-03-20T02:57:31.299Z,69.16
2019-03-20T03:00:02.449Z,69.46
2019-03-20T03:02:33.039Z,68.96
2019-03-20T03:05:02.434Z,68.98
2019-03-20T03:07:32.783Z,68.68
2019-03-20T03:10:03.187Z,69.36
2019-03-20T03:12:33.591Z,69.42
2019-03-20T03:15:02.402Z,68.91
2019-03-20T03:17:34.272Z,68.71
2019-03-20T03:20:04.809Z,68.87
2019-03-20T03:22:35.225Z,68.51
2019-03-20T03:25:08.248Z,69.32
2019-03-20T03:27:41.664Z,68.62
2019-03-20T03:30:19.086Z,68.82
2019-03-20T03:32:49.611Z,68.52
2019-03-20T03:35:19.750Z,68.42
2019-03-20T03:37:49.565Z,68.73
2019-03-20T03:40:21.411Z,68.91
2019-03-20T03:42:50.907Z,68.69
2019-03-20T03:45:21.401Z,68.77
2019-03-20T03:47:53.203Z,68.78
2019-03-20T03:50:23.838Z,69.37
2019-03-20T03:52:53.243Z,69.55
2019-03-20T03:55:24.826Z,69.61
2019-03-20T03:57:55.412Z,69.24
2019-03-20T04:00:25.826Z,69.70
2019-03-20T04:02:55.217Z,69.12
2019-03-20T04:05:24.606Z,68.76
2019-03-20T04:07:55.058Z,68.79
2019-03-20T04:10:26.107Z,69.94
2019-03-20T04:12:55.503Z,70.16
2019-03-20T04:15:25.778Z,70.21
2019-03-20T04:17:55.265Z,69.50
2019-03-20T04:20:27.600Z,69.52
2019-03-20T04:23:00.002Z,69.08
2019-03-20T04:25:30.450Z,69.04
2019-03-20T04:28:00.744Z,69.16
2019-03-20T04:30:29.509Z,69.02
2019-03-20T04:32:59.954Z,69.63
2019-03-20T04:35:29.359Z,68.80
2019-03-20T04:37:59.663Z,69.18
2019-03-20T04:40:30.233Z,69.25
2019-03-20T04:42:59.627Z,69.55
2019-03-20T04:45:29.059Z,69.93
2019-03-20T04:47:59.448Z,70.07
2019-03-20T04:50:29.860Z,70.31
2019-03-20T04:53:00.294Z,70.03
2019-03-20T04:55:31.235Z,69.78
2019-03-20T04:58:00.589Z,70.20
2019-03-20T05:00:29.919Z,70.01
2019-03-20T05:03:00.988Z,70.05
2019-03-20T05:05:30.341Z,70.41
2019-03-20T05:08:00.845Z,70.76
2019-03-20T05:10:31.191Z,71.15
2019-03-20T05:13:01.583Z,70.42
2019-03-20T05:15:30.995Z,70.55
2019-03-20T05:18:00.404Z,70.37
2019-03-20T05:20:30.756Z,70.45
2019-03-20T05:23:08.674Z,70.91
2019-03-20T05:25:38.043Z,71.25
2019-03-20T05:28:11.571Z,71.13
2019-03-20T05:30:43.966Z,71.05
2019-03-20T05:33:13.449Z,70.82
2019-03-20T05:35:43.836Z,65.58
2019-03-20T05:38:15.370Z,58.20
2019-03-20T05:40:45.806Z,54.51
2019-03-20T05:43:15.202Z,47.34
2019-03-20T05:45:47.441Z,44.81
2019-03-20T05:48:17.856Z,41.26
2019-03-20T05:50:47.361Z,41.04
2019-03-20T05:53:17.717Z,35.88
2019-03-20T05:55:48.126Z,35.69
2019-03-20T05:58:19.055Z,32.90
2019-03-20T06:00:49.457Z,30.69
2019-03-20T06:03:19.971Z,30.36
2019-03-20T06:05:49.476Z,27.73
2019-03-20T06:08:19.838Z,25.98
2019-03-20T06:10:49.246Z,25.20
2019-03-20T06:13:18.709Z,26.76
2019-03-20T06:15:48.075Z,27.08
2019-03-20T06:18:18.551Z,25.52
2019-03-20T06:20:49.530Z,23.70
2019-03-20T06:23:17.978Z,22.98
2019-03-20T06:25:51.401Z,23.60
2019-03-20T06:28:24.232Z,22.71
2019-03-20T06:30:56.099Z,22.56
2019-03-20T06:33:25.506Z,21.76
2019-03-20T06:35:54.925Z,22.52
2019-03-20T06:38:25.436Z,20.83
2019-03-20T06:40:57.677Z,22.61
2019-03-20T06:43:27.130Z,21.78
2019-03-20T06:45:57.807Z,20.97
2019-03-20T06:48:28.203Z,19.97
2019-03-20T06:50:58.715Z,19.50
2019-03-20T06:53:28.345Z,19.89
2019-03-20T06:55:58.809Z,20.34
2019-03-20T06:58:29.634Z,21.60
2019-03-20T07:01:07.556Z,20.72
2019-03-20T07:03:53.202Z,20.20
2019-03-20T07:06:43.690Z,20.52
2019-03-20T07:09:28.209Z,21.65
2019-03-20T07:11:58.172Z,22.34
2019-03-20T07:14:28.883Z,23.91
2019-03-20T07:17:00.951Z,22.05
2019-03-20T07:19:31.459Z,25.70
2019-03-20T07:22:00.301Z,25.56
2019-03-20T07:24:30.830Z,25.16
2019-03-20T07:27:01.321Z,23.91
2019-03-20T07:29:30.908Z,24.47
2019-03-20T07:32:00.312Z,24.81
2019-03-20T07:34:30.634Z,26.79
2019-03-20T07:37:00.019Z,27.70
2019-03-20T07:39:30.733Z,27.14
2019-03-20T07:42:01.101Z,26.63
2019-03-20T07:44:31.858Z,27.62
2019-03-20T07:47:01.394Z,25.98
2019-03-20T07:49:32.063Z,25.56
2019-03-20T07:52:03.594Z,27.39
2019-03-20T07:54:33.973Z,27.19
2019-03-20T07:57:03.632Z,27.06
2019-03-20T07:59:34.081Z,26.78
2019-03-20T08:02:05.117Z,26.40
2019-03-20T08:04:35.524Z,24.72
2019-03-20T08:07:04.896Z,25.41
2019-03-20T08:09:36.668Z,26.18
2019-03-20T08:12:06.162Z,25.69
2019-03-20T08:14:36.619Z,26.42
2019-03-20T08:17:06.085Z,25.27
2019-03-20T08:19:35.490Z,24.65
2019-03-20T08:22:04.964Z,23.58
2019-03-20T08:24:34.915Z,24.49
2019-03-20T08:27:05.418Z,25.01
2019-03-20T08:29:35.930Z,24.59
2019-03-20T08:32:06.254Z,21.92
2019-03-20T08:34:37.152Z,23.10
2019-03-20T08:37:07.555Z,20.65
2019-03-20T08:39:37.063Z,21.76
2019-03-20T08:42:07.736Z,20.67
2019-03-20T08:44:38.352Z,21.77
2019-03-20T08:47:10.740Z,23.77
2019-03-20T08:49:41.311Z,22.87
2019-03-20T08:52:15.523Z,21.74
2019-03-20T08:54:44.929Z,21.34
2019-03-20T08:57:14.298Z,21.56
2019-03-20T08:59:45.069Z,21.42
2019-03-20T09:02:14.574Z,21.51
2019-03-20T09:04:46.819Z,22.18
2019-03-20T09:07:15.289Z,21.83
2019-03-20T09:09:45.958Z,21.74
2019-03-20T09:12:15.365Z,22.70
2019-03-20T09:14:45.011Z,20.51
2019-03-20T09:17:16.468Z,22.77
2019-03-20T09:19:46.862Z,22.58
2019-03-20T09:22:17.360Z,22.75
2019-03-20T09:24:47.775Z,20.52
2019-03-20T09:27:17.171Z,20.25
2019-03-20T09:29:47.759Z,20.80
2019-03-20T09:32:18.145Z,20.48
2019-03-20T09:34:47.634Z,20.48
2019-03-20T09:37:17.287Z,19.26
2019-03-20T09:39:47.690Z,21.69
2019-03-20T09:42:19.310Z,23.02
2019-03-20T09:44:51.275Z,23.11
2019-03-20T09:47:22.298Z,24.38
2019-03-20T09:49:53.342Z,24.87
2019-03-20T09:52:23.803Z,24.59
2019-03-20T09:54:56.462Z,22.84
2019-03-20T09:57:26.902Z,23.39
2019-03-20T09:59:57.306Z,23.98
2019-03-20T10:02:27.818Z,23.63
2019-03-20T10:04:58.328Z,23.47
2019-03-20T10:07:28.711Z,23.44
2019-03-20T10:09:59.089Z,24.22
2019-03-20T10:12:30.011Z,23.55
2019-03-20T10:15:02.664Z,23.72
2019-03-20T10:17:33.075Z,23.11
2019-03-20T10:20:03.694Z,25.80
2019-03-20T10:22:34.194Z,25.09
2019-03-20T10:25:03.684Z,24.23
2019-03-20T10:27:36.258Z,24.54
2019-03-20T10:30:08.195Z,25.38
2019-03-20T10:32:40.530Z,25.95
2019-03-20T10:35:12.707Z,25.71
2019-03-20T10:37:43.094Z,24.66
2019-03-20T10:40:28.621Z,25.71
2019-03-20T10:42:58.140Z,25.27
2019-03-20T10:45:27.607Z,25.03
2019-03-20T10:47:57.111Z,25.69
2019-03-20T10:50:31.923Z,26.21
2019-03-20T10:53:01.517Z,27.91
2019-03-20T10:55:30.354Z,25.36
2019-03-20T10:57:59.799Z,24.65
2019-03-20T11:00:30.905Z,24.88
2019-03-20T11:03:01.573Z,25.77
2019-03-20T11:05:33.134Z,27.36
2019-03-20T11:08:02.713Z,26.51
2019-03-20T11:10:33.121Z,25.02
2019-03-20T11:13:03.836Z,26.29
2019-03-20T11:15:34.404Z,25.98
2019-03-20T11:18:06.448Z,26.55
2019-03-20T11:20:38.796Z,27.26
2019-03-20T11:23:09.307Z,26.52
2019-03-20T11:25:38.923Z,26.55
2019-03-20T11:28:09.505Z,27.13
2019-03-20T11:30:38.898Z,26.22
2019-03-20T11:33:08.551Z,28.08
2019-03-20T11:35:38.249Z,27.58
2019-03-20T11:38:08.722Z,26.47
2019-03-20T11:40:43.295Z,25.78
2019-03-20T11:43:12.807Z,28.92
2019-03-20T11:45:42.273Z,26.31
2019-03-20T11:48:11.751Z,27.31
2019-03-20T11:50:43.379Z,29.03
2019-03-20T11:53:13.861Z,26.63
2019-03-20T11:55:44.266Z,27.43
2019-03-20T11:58:17.390Z,25.70
2019-03-20T12:00:47.881Z,26.88
2019-03-20T12:03:18.138Z,28.13
2019-03-20T12:05:48.932Z,27.76
2019-03-20T12:08:21.202Z,28.27
2019-03-20T12:10:51.607Z,26.92
2019-03-20T12:13:22.432Z,28.66
2019-03-20T12:15:54.304Z,27.83
2019-03-20T12:18:23.712Z,28.54
2019-03-20T12:20:53.174Z,28.02
2019-03-20T12:23:23.739Z,28.93
2019-03-20T12:25:54.144Z,27.82
2019-03-20T12:28:25.744Z,27.82
2019-03-20T12:30:55.105Z,28.95
2019-03-20T12:33:24.529Z,29.03
2019-03-20T12:35:53.911Z,27.21
2019-03-20T12:38:24.207Z,29.41
2019-03-20T12:40:54.804Z,27.16
2019-03-20T12:43:25.212Z,27.71
2019-03-20T12:45:54.684Z,27.58
2019-03-20T12:48:25.183Z,28.53
2019-03-20T12:50:56.910Z,29.00
2019-03-20T12:53:35.406Z,28.74
2019-03-20T12:56:04.880Z,27.61
2019-03-20T12:58:36.937Z,28.31
2019-03-20T13:01:08.274Z,29.75
2019-03-20T13:03:38.907Z,28.42
2019-03-20T13:06:07.678Z,28.25
2019-03-20T13:08:40.529Z,29.50
2019-03-20T13:11:12.178Z,28.14
2019-03-20T13:13:41.572Z,30.48
2019-03-20T13:16:12.094Z,29.46
2019-03-20T13:18:43.887Z,28.98
2019-03-20T13:21:15.788Z,30.14
2019-03-20T13:23:45.526Z,29.57
2019-03-20T13:26:16.411Z,29.87
2019-03-20T13:28:47.339Z,29.72
2019-03-20T13:31:19.899Z,30.08
2019-03-20T13:37:19.451Z,28.72
2019-03-20T13:39:51.647Z,30.50
2019-03-20T13:42:22.456Z,29.30
2019-03-20T13:48:20.922Z,29.95
2019-03-20T13:50:52.998Z,28.66
2019-03-20T13:53:23.863Z,28.96
2019-03-20T13:55:53.413Z,28.56
2019-03-20T13:58:23.914Z,29.92
2019-03-20T14:00:54.426Z,29.51
2019-03-20T14:03:24.408Z,29.98
2019-03-20T14:05:55.642Z,30.91
2019-03-20T14:08:26.043Z,30.22
2019-03-20T14:10:55.528Z,31.14
2019-03-20T14:13:24.932Z,29.83
2019-03-20T14:15:54.357Z,28.27
2019-03-20T14:18:24.859Z,28.25
2019-03-20T14:20:55.712Z,29.13
2019-03-20T14:23:26.179Z,28.46
2019-03-20T14:25:55.554Z,28.31
2019-03-20T14:28:25.172Z,28.70
2019-03-20T14:30:54.054Z,29.13
2019-03-20T14:33:23.783Z,28.38
2019-03-20T14:35:53.095Z,28.75
2019-03-20T14:38:24.238Z,28.87
2019-03-20T14:40:54.843Z,30.67
2019-03-20T14:43:25.361Z,29.49
2019-03-20T14:45:55.862Z,29.08
2019-03-20T14:48:26.308Z,30.43
2019-03-20T14:50:56.782Z,30.19
2019-03-20T14:53:28.552Z,31.02
2019-03-20T14:55:58.986Z,32.32
2019-03-20T14:58:27.782Z,30.26
2019-03-20T15:01:00.174Z,31.63
2019-03-20T15:03:30.688Z,32.90
2019-03-20T15:06:01.415Z,29.79
2019-03-20T15:08:31.702Z,30.26
2019-03-20T15:11:02.231Z,30.04
2019-03-20T15:13:31.831Z,30.54
2019-03-20T15:16:08.272Z,31.30
2019-03-20T15:18:38.654Z,31.76
2019-03-20T15:21:08.243Z,31.37
2019-03-20T15:23:37.643Z,30.29
2019-03-20T15:26:08.301Z,32.05
2019-03-20T15:28:40.186Z,28.90
2019-03-20T15:31:10.905Z,29.55
2019-03-20T15:33:40.681Z,29.75
2019-03-20T15:36:10.524Z,30.55
2019-03-20T15:38:42.713Z,30.84
2019-03-20T15:41:13.939Z,32.45
2019-03-20T15:43:46.001Z,33.82
2019-03-20T15:46:15.410Z,32.70
2019-03-20T15:48:46.074Z,32.33
2019-03-20T15:51:17.891Z,32.27
2019-03-20T15:53:46.837Z,32.99
2019-03-20T15:56:16.304Z,31.95
2019-03-20T15:58:47.997Z,30.10
2019-03-20T16:01:16.810Z,32.24
2019-03-20T16:03:49.650Z,32.89
2019-03-20T16:06:20.045Z,33.64
2019-03-20T16:08:51.671Z,32.13
2019-03-20T16:11:22.193Z,32.42
2019-03-20T16:13:52.587Z,31.84
2019-03-20T16:16:24.242Z,33.72
2019-03-20T16:18:53.650Z,33.60
2019-03-20T16:21:25.009Z,34.41
2019-03-20T16:23:54.348Z,34.92
2019-03-20T16:26:24.725Z,34.80
2019-03-20T16:28:54.305Z,35.32
2019-03-20T16:31:24.691Z,35.76
2019-03-20T16:33:54.175Z,34.75
2019-03-20T16:36:25.137Z,34.18
2019-03-20T16:38:56.133Z,35.30
2019-03-20T16:41:28.196Z,34.83
2019-03-20T16:43:58.601Z,36.01
2019-03-20T16:46:28.077Z,37.21
2019-03-20T16:49:00.456Z,35.81
2019-03-20T16:51:31.076Z,33.08
2019-03-20T16:54:01.791Z,33.76
2019-03-20T16:56:32.202Z,33.54
2019-03-20T16:59:02.606Z,33.30
2019-03-20T17:01:32.091Z,34.97
2019-03-20T17:04:01.485Z,34.98
2019-03-20T17:06:31.938Z,34.19
2019-03-20T17:09:02.608Z,34.17
2019-03-20T17:11:38.651Z,33.95
2019-03-20T17:14:07.438Z,33.73
2019-03-20T17:16:42.685Z,34.09
2019-03-20T17:19:10.229Z,35.56
2019-03-20T17:21:40.591Z,37.57
2019-03-20T17:24:09.998Z,35.77
2019-03-20T17:26:39.407Z,36.01
2019-03-20T17:29:09.365Z,35.25
2019-03-20T17:31:38.927Z,34.53
2019-03-20T17:34:07.654Z,35.13
2019-03-20T17:36:37.018Z,35.46
2019-03-20T17:39:08.878Z,35.25
2019-03-20T17:41:42.315Z,36.05
2019-03-20T17:44:12.729Z,36.68
2019-03-20T17:46:43.217Z,39.03
2019-03-20T17:49:12.633Z,39.05
2019-03-20T17:51:43.227Z,38.89
2019-03-20T17:54:13.612Z,38.00
2019-03-20T17:56:43.081Z,37.64
2019-03-20T17:59:14.062Z,42.80
2019-03-20T18:01:43.519Z,45.32
2019-03-20T18:04:12.944Z,44.29
2019-03-20T18:06:43.311Z,42.88
2019-03-20T18:09:12.750Z,43.35
2019-03-20T18:11:47.361Z,43.26
2019-03-20T18:14:15.150Z,47.27
2019-03-20T18:16:45.550Z,43.40
2019-03-20T18:19:16.050Z,42.80
2019-03-20T18:21:45.455Z,43.53
2019-03-20T18:24:15.870Z,50.50
2019-03-20T18:26:47.821Z,49.48
2019-03-20T18:29:17.255Z,49.10
2019-03-20T18:31:47.710Z,48.30
2019-03-20T18:34:17.083Z,51.41
2019-03-20T18:36:46.475Z,44.69
2019-03-20T18:39:20.638Z,45.93
2019-03-20T18:41:57.683Z,46.91
2019-03-20T18:44:22.616Z,47.08
2019-03-20T18:46:54.845Z,48.18
2019-03-20T18:49:23.579Z,50.24
2019-03-20T18:51:55.977Z,49.19
2019-03-20T18:54:28.566Z,49.92
2019-03-20T18:56:57.927Z,49.81
2019-03-20T18:59:27.352Z,49.93
2019-03-20T19:01:57.914Z,50.54
2019-03-20T19:04:28.324Z,50.72
2019-03-20T19:07:00.805Z,50.69
2019-03-20T19:09:30.315Z,51.62
2019-03-20T19:12:08.626Z,52.35
2019-03-20T19:14:31.600Z,52.81
2019-03-20T19:17:01.077Z,53.16
2019-03-20T19:19:33.150Z,52.52
2019-03-20T19:22:05.073Z,52.28
2019-03-20T19:24:35.503Z,51.91
2019-03-20T19:27:06.567Z,51.53
2019-03-20T19:29:36.076Z,50.97
2019-03-20T19:32:06.527Z,51.48
2019-03-20T19:34:37.047Z,51.73
2019-03-20T19:37:52.509Z,51.62
2019-03-20T19:40:24.760Z,51.46
2019-03-20T19:42:54.153Z,51.68
2019-03-20T19:45:23.514Z,51.72
2019-03-20T19:47:52.948Z,51.82
2019-03-20T19:50:24.558Z,52.76
2019-03-20T19:52:53.964Z,53.78
2019-03-20T19:55:24.465Z,54.93
2019-03-20T19:57:53.952Z,55.13
2019-03-20T20:00:27.989Z,55.21
2019-03-20T20:02:59.377Z,56.32
2019-03-20T20:05:30.054Z,55.11
2019-03-20T20:08:00.472Z,54.61
2019-03-20T20:10:32.851Z,53.46
2019-03-20T20:13:02.254Z,53.65
2019-03-20T20:15:34.695Z,53.90
2019-03-20T20:18:05.111Z,54.25
2019-03-20T20:20:39.488Z,54.89
2019-03-20T20:23:09.903Z,55.19
2019-03-20T20:25:40.304Z,55.84
2019-03-20T20:28:11.396Z,55.87
2019-03-20T20:30:43.476Z,55.89
2019-03-20T20:33:12.880Z,55.44
2019-03-20T20:35:42.276Z,56.07
2019-03-20T20:38:12.751Z,56.91
2019-03-20T20:40:43.122Z,58.89
2019-03-20T20:43:13.553Z,58.41
2019-03-20T20:45:45.040Z,57.99
2019-03-20T20:48:15.417Z,58.14
2019-03-20T20:50:45.836Z,58.62
2019-03-20T20:53:15.174Z,58.54
2019-03-20T20:55:47.670Z,58.98
2019-03-20T20:58:18.035Z,59.52
2019-03-20T21:00:48.799Z,59.77
2019-03-20T21:03:19.188Z,60.84
2019-03-20T21:05:48.682Z,60.32
2019-03-20T21:08:19.021Z,59.44
2019-03-20T21:10:48.866Z,59.52
2019-03-20T21:13:19.476Z,59.93
2019-03-20T21:15:50.290Z,60.06
2019-03-20T21:18:49.629Z,60.58
2019-03-20T21:21:19.982Z,60.67
2019-03-20T21:24:22.960Z,60.50
2019-03-20T21:27:13.039Z,60.08
2019-03-20T21:30:04.927Z,60.56
2019-03-20T21:32:45.316Z,60.56
2019-03-20T21:35:43.055Z,60.70
2019-03-20T21:38:11.736Z,60.37
2019-03-20T21:40:47.667Z,61.32
2019-03-20T21:43:40.369Z,61.37
2019-03-20T21:46:21.341Z,61.52
2019-03-20T21:48:52.089Z,61.68
2019-03-20T21:51:21.569Z,61.23
2019-03-20T21:54:09.998Z,61.61
2019-03-20T21:56:54.492Z,62.47
2019-03-20T21:59:43.752Z,63.06
2019-03-20T22:02:44.670Z,62.44
2019-03-20T22:05:42.576Z,64.10
2019-03-20T22:08:13.155Z,62.16
2019-03-20T22:11:01.297Z,61.98
2019-03-20T22:13:40.608Z,62.75
2019-03-20T22:16:33.443Z,62.43
2019-03-20T22:19:40.410Z,62.62
2019-03-20T22:22:24.977Z,63.13
2019-03-20T22:25:13.899Z,63.08
2019-03-20T22:27:51.721Z,63.09
2019-03-20T22:30:21.091Z,63.98
2019-03-20T22:33:10.796Z,64.54
2019-03-20T22:35:43.361Z,65.08
2019-03-20T22:38:28.084Z,65.60
2019-03-20T22:41:16.567Z,64.86
2019-03-20T22:43:51.925Z,65.86
2019-03-20T22:46:29.224Z,65.70
2019-03-20T22:49:04.758Z,66.20
2019-03-20T22:51:49.295Z,65.87
2019-03-20T22:54:40.709Z,65.76
2019-03-20T22:57:12.519Z,65.59
2019-03-20T22:59:44.909Z,65.83
2019-03-20T23:02:29.312Z,66.29
2019-03-20T23:05:01.872Z,66.48
2019-03-20T23:07:31.918Z,66.20
2019-03-20T23:10:02.418Z,65.71
2019-03-20T23:12:32.786Z,65.81
2019-03-20T23:15:03.230Z,66.32
2019-03-20T23:17:32.594Z,66.07
2019-03-20T23:20:03.854Z,66.34
2019-03-20T23:22:34.241Z,66.10
2019-03-20T23:25:04.642Z,66.61
2019-03-20T23:27:34.041Z,66.66
2019-03-20T23:30:04.629Z,66.89
2019-03-20T23:32:34.024Z,67.30
2019-03-20T23:35:04.693Z,67.46
2019-03-20T23:37:35.226Z,67.46
2019-03-20T23:40:07.379Z,67.28
2019-03-20T23:42:37.746Z,67.07
2019-03-20T23:45:10.221Z,66.67
2019-03-20T23:47:41.740Z,66.60
2019-03-20T23:50:13.908Z,66.40
2019-03-20T23:52:44.254Z,65.31
2019-03-20T23:55:14.654Z,64.90
2019-03-20T23:57:44.017Z,64.98
